PWSweather.com
Personal Weather Stations
Station Observations
K7AZM
Phoenix, AZ 85050

Phoenix, AZ 85050

Lat: 33.662, Lon: -112.019

Elevation: 1500

Station Type: Davis Vantage Vue

http://www.silhanek.com/weather

High Low Average
Temperature 77.0°F25.0°C 56.5°F13.6°C 64.1°F17.8°C
Dew Point 57.3°F14.1°C 49.1°F9.5°C 52.5°F11.4°C
Winds 1.7 mph 2.7 kmh Calm Calm Calm SCalm S
Wind Gusts 5.0 mph8.0 kmh -- 2.0 mph3.2 kmh
Humidity 92% 40% 68%
Pressure 30.08 in1018.6 mb 29.98 in1015.2 mb -
Precipitation 0.05 in1.3 mm - -
Hour Temp Dew Point Humidity Winds Wind Gusts Pressure Precip Precip Rate Daily Precip Total
12:00 AM 60.4°F15.8°C 49.4°F9.7°C 67% 0.3 mph E0.5 kmh E 2.0 mph3.2 kmh 30.02 in1016.6 mb 0.00 in0.0 mm 0.00 in0.0 mm 0.00 in0.0 mm
12:05 AM 60.4°F15.8°C 49.4°F9.7°C 67% 0.2 mph E0.3 kmh E 2.0 mph3.2 kmh 30.02 in1016.6 mb 0.00 in0.0 mm 0.00 in0.0 mm 0.00 in0.0 mm
12:10 AM 60.4°F15.8°C 49.4°F9.7°C 67% 0.1 mph SE0.2 kmh SE 1.0 mph1.6 kmh 30.02 in1016.6 mb 0.00 in0.0 mm 0.00 in0.0 mm 0.00 in0.0 mm
12:15 AM 60.2°F15.7°C 49.6°F9.8°C 68% 0.8 mph SE1.3 kmh SE 3.0 mph4.8 kmh 30.01 in1016.3 mb 0.00 in0.0 mm 0.00 in0.0 mm 0.00 in0.0 mm
12:20 AM 59.9°F15.5°C 49.7°F9.8°C 69% 1.1 mph ESE1.8 kmh ESE 5.0 mph8.0 kmh 30.02 in1016.6 mb 0.00 in0.0 mm 0.00 in0.0 mm 0.00 in0.0 mm
12:25 AM 59.7°F15.4°C 49.9°F9.9°C 70% 0.9 mph SE1.4 kmh SE 5.0 mph8.0 kmh 30.02 in1016.6 mb 0.00 in0.0 mm 0.00 in0.0 mm 0.00 in0.0 mm
12:30 AM 59.5°F15.3°C 50.1°F10.1°C 71% 0.4 mph SE0.6 kmh SE 3.0 mph4.8 kmh 30.02 in1016.6 mb 0.00 in0.0 mm 0.00 in0.0 mm 0.00 in0.0 mm
12:35 AM 59.4°F15.2°C 50.0°F10.0°C 71% 0.6 mph SE1.0 kmh SE 3.0 mph4.8 kmh 30.02 in1016.6 mb 0.00 in0.0 mm 0.00 in0.0 mm 0.00 in0.0 mm
12:40 AM 59.3°F15.2°C 50.3°F10.2°C 72% 0.2 mph N0.3 kmh N 3.0 mph4.8 kmh 30.02 in1016.6 mb 0.00 in0.0 mm 0.00 in0.0 mm 0.00 in0.0 mm
12:45 AM 59.2°F15.1°C 50.2°F10.1°C 72% 0.2 mph NE0.3 kmh NE 2.0 mph3.2 kmh 30.02 in1016.6 mb 0.00 in0.0 mm 0.00 in0.0 mm 0.00 in0.0 mm
12:50 AM 59.1°F15.1°C 50.5°F10.3°C 73% Calm Calm 2.0 mph3.2 kmh 30.01 in1016.3 mb 0.00 in0.0 mm 0.00 in0.0 mm 0.00 in0.0 mm
12:55 AM 58.9°F14.9°C 50.3°F10.2°C 73% Calm Calm 1.0 mph1.6 kmh 30.02 in1016.6 mb 0.00 in0.0 mm 0.00 in0.0 mm 0.00 in0.0 mm
01:00 AM 58.8°F14.9°C 50.2°F10.1°C 73% Calm Calm 1.0 mph1.6 kmh 30.02 in1016.6 mb 0.00 in0.0 mm 0.00 in0.0 mm 0.00 in0.0 mm
01:05 AM 58.8°F14.9°C 50.2°F10.1°C 73% 0.2 mph ESE0.3 kmh ESE 1.0 mph1.6 kmh 30.01 in1016.3 mb 0.00 in0.0 mm 0.00 in0.0 mm 0.00 in0.0 mm
01:10 AM 58.9°F14.9°C 50.3°F10.2°C 73% 0.2 mph ESE0.3 kmh ESE 1.0 mph1.6 kmh 30.01 in1016.3 mb 0.00 in0.0 mm 0.00 in0.0 mm 0.00 in0.0 mm
01:15 AM 59.0°F15.0°C 50.4°F10.2°C 73% 0.1 mph ESE0.2 kmh ESE 1.0 mph1.6 kmh 30.01 in1016.3 mb 0.00 in0.0 mm 0.00 in0.0 mm 0.00 in0.0 mm
01:20 AM 59.1°F15.1°C 50.5°F10.3°C 73% 0.1 mph E0.2 kmh E 2.0 mph3.2 kmh 30.00 in1015.9 mb 0.00 in0.0 mm 0.00 in0.0 mm 0.00 in0.0 mm
01:25 AM 59.0°F15.0°C 50.4°F10.2°C 73% Calm Calm 2.0 mph3.2 kmh 30.00 in1015.9 mb 0.00 in0.0 mm 0.00 in0.0 mm 0.00 in0.0 mm
01:30 AM 59.1°F15.1°C 50.5°F10.3°C 73% Calm Calm 1.0 mph1.6 kmh 30.01 in1016.3 mb 0.00 in0.0 mm 0.00 in0.0 mm 0.00 in0.0 mm
01:35 AM 59.0°F15.0°C 50.4°F10.2°C 73% Calm Calm -- 30.00 in1015.9 mb 0.00 in0.0 mm 0.00 in0.0 mm 0.00 in0.0 mm
01:40 AM 59.0°F15.0°C 50.4°F10.2°C 73% Calm Calm -- 30.00 in1015.9 mb 0.00 in0.0 mm 0.00 in0.0 mm 0.00 in0.0 mm
01:45 AM 59.0°F15.0°C 50.4°F10.2°C 73% Calm Calm -- 30.00 in1015.9 mb 0.00 in0.0 mm 0.00 in0.0 mm 0.00 in0.0 mm
01:50 AM 59.0°F15.0°C 50.4°F10.2°C 73% Calm Calm -- 30.00 in1015.9 mb 0.00 in0.0 mm 0.00 in0.0 mm 0.00 in0.0 mm
01:55 AM 58.9°F14.9°C 50.3°F10.2°C 73% Calm Calm -- 30.00 in1015.9 mb 0.00 in0.0 mm 0.00 in0.0 mm 0.00 in0.0 mm
02:00 AM 58.9°F14.9°C 50.6°F10.3°C 74% Calm Calm -- 30.00 in1015.9 mb 0.00 in0.0 mm 0.00 in0.0 mm 0.00 in0.0 mm
02:05 AM 58.9°F14.9°C 50.6°F10.3°C 74% 0.3 mph ENE0.5 kmh ENE 2.0 mph3.2 kmh 30.00 in1015.9 mb 0.00 in0.0 mm 0.00 in0.0 mm 0.00 in0.0 mm
02:10 AM 59.1°F15.1°C 50.5°F10.3°C 73% 0.9 mph ENE1.4 kmh ENE 3.0 mph4.8 kmh 30.00 in1015.9 mb 0.00 in0.0 mm 0.00 in0.0 mm 0.00 in0.0 mm
02:15 AM 59.1°F15.1°C 50.8°F10.4°C 74% 0.7 mph ENE1.1 kmh ENE 3.0 mph4.8 kmh 30.00 in1015.9 mb 0.00 in0.0 mm 0.00 in0.0 mm 0.00 in0.0 mm
02:20 AM 59.1°F15.1°C 50.8°F10.4°C 74% 0.9 mph ENE1.4 kmh ENE 2.0 mph3.2 kmh 30.00 in1015.9 mb 0.00 in0.0 mm 0.00 in0.0 mm 0.00 in0.0 mm
02:25 AM 59.1°F15.1°C 50.8°F10.4°C 74% 0.7 mph NE1.1 kmh NE 2.0 mph3.2 kmh 30.00 in1015.9 mb 0.00 in0.0 mm 0.00 in0.0 mm 0.00 in0.0 mm
02:30 AM 59.0°F15.0°C 51.1°F10.6°C 75% 0.1 mph ENE0.2 kmh ENE 2.0 mph3.2 kmh 30.00 in1015.9 mb 0.00 in0.0 mm 0.00 in0.0 mm 0.00 in0.0 mm
02:35 AM 59.0°F15.0°C 51.1°F10.6°C 75% Calm Calm 2.0 mph3.2 kmh 30.00 in1015.9 mb 0.00 in0.0 mm 0.00 in0.0 mm 0.00 in0.0 mm
02:40 AM 59.0°F15.0°C 51.4°F10.8°C 76% 0.1 mph E0.2 kmh E 1.0 mph1.6 kmh 29.99 in1015.6 mb 0.00 in0.0 mm 0.00 in0.0 mm 0.00 in0.0 mm
02:45 AM 58.9°F14.9°C 51.7°F10.9°C 77% Calm Calm 1.0 mph1.6 kmh 29.99 in1015.6 mb 0.00 in0.0 mm 0.00 in0.0 mm 0.00 in0.0 mm
02:50 AM 58.7°F14.8°C 52.2°F11.2°C 79% Calm Calm -- 30.00 in1015.9 mb 0.00 in0.0 mm 0.00 in0.0 mm 0.00 in0.0 mm
02:55 AM 58.4°F14.7°C 51.9°F11.1°C 79% 0.5 mph E0.8 kmh E 1.0 mph1.6 kmh 29.99 in1015.6 mb 0.01 in0.3 mm 0.12 in3.0 mm 0.01 in0.3 mm
03:00 AM 58.2°F14.6°C 51.7°F10.9°C 79% 0.5 mph ENE0.8 kmh ENE 2.0 mph3.2 kmh 29.98 in1015.2 mb 0.01 in0.3 mm 0.00 in0.0 mm 0.01 in0.3 mm
03:05 AM 58.1°F14.5°C 52.0°F11.1°C 80% 0.6 mph NE1.0 kmh NE 2.0 mph3.2 kmh 29.98 in1015.2 mb 0.01 in0.3 mm 0.00 in0.0 mm 0.01 in0.3 mm
03:10 AM 58.0°F14.4°C 51.9°F11.1°C 80% 0.5 mph NE0.8 kmh NE 3.0 mph4.8 kmh 29.98 in1015.2 mb 0.01 in0.3 mm 0.00 in0.0 mm 0.01 in0.3 mm
03:15 AM 57.9°F14.4°C 52.1°F11.2°C 81% 0.7 mph NE1.1 kmh NE 3.0 mph4.8 kmh 29.98 in1015.2 mb 0.01 in0.3 mm 0.00 in0.0 mm 0.01 in0.3 mm
03:20 AM 57.8°F14.3°C 52.0°F11.1°C 81% 1.2 mph ENE1.9 kmh ENE 3.0 mph4.8 kmh 29.98 in1015.2 mb 0.01 in0.3 mm 0.00 in0.0 mm 0.01 in0.3 mm
03:25 AM 57.7°F14.3°C 51.9°F11.1°C 81% 1.0 mph ENE1.6 kmh ENE 3.0 mph4.8 kmh 29.98 in1015.2 mb 0.01 in0.3 mm 0.00 in0.0 mm 0.01 in0.3 mm
03:30 AM 57.6°F14.2°C 52.1°F11.2°C 82% 0.6 mph ENE1.0 kmh ENE 3.0 mph4.8 kmh 29.98 in1015.2 mb 0.01 in0.3 mm 0.00 in0.0 mm 0.01 in0.3 mm
03:35 AM 57.6°F14.2°C 52.1°F11.2°C 82% 0.8 mph ENE1.3 kmh ENE 2.0 mph3.2 kmh 29.98 in1015.2 mb 0.01 in0.3 mm 0.00 in0.0 mm 0.01 in0.3 mm
03:40 AM 57.6°F14.2°C 52.1°F11.2°C 82% 1.1 mph ENE1.8 kmh ENE 4.0 mph6.4 kmh 29.98 in1015.2 mb 0.01 in0.3 mm 0.00 in0.0 mm 0.01 in0.3 mm
03:45 AM 57.6°F14.2°C 52.1°F11.2°C 82% 0.8 mph ENE1.3 kmh ENE 4.0 mph6.4 kmh 29.98 in1015.2 mb 0.01 in0.3 mm 0.00 in0.0 mm 0.01 in0.3 mm
03:50 AM 57.6°F14.2°C 52.5°F11.4°C 83% 0.8 mph ENE1.3 kmh ENE 3.0 mph4.8 kmh 29.98 in1015.2 mb 0.01 in0.3 mm 0.00 in0.0 mm 0.01 in0.3 mm
03:55 AM 57.6°F14.2°C 52.5°F11.4°C 83% 0.2 mph ENE0.3 kmh ENE 2.0 mph3.2 kmh 29.98 in1015.2 mb 0.00 in0.0 mm 0.00 in0.0 mm 0.01 in0.3 mm
04:00 AM 57.6°F14.2°C 52.5°F11.4°C 83% 0.1 mph ENE0.2 kmh ENE 1.0 mph1.6 kmh 29.98 in1015.2 mb 0.00 in0.0 mm 0.00 in0.0 mm 0.01 in0.3 mm
04:05 AM 57.6°F14.2°C 52.5°F11.4°C 83% Calm Calm 1.0 mph1.6 kmh 29.98 in1015.2 mb 0.00 in0.0 mm 0.00 in0.0 mm 0.01 in0.3 mm
04:10 AM 57.5°F14.2°C 52.4°F11.3°C 83% Calm Calm 1.0 mph1.6 kmh 29.98 in1015.2 mb 0.00 in0.0 mm 0.00 in0.0 mm 0.01 in0.3 mm
04:15 AM 57.5°F14.2°C 52.7°F11.5°C 84% 0.1 mph NE0.2 kmh NE 1.0 mph1.6 kmh 29.99 in1015.6 mb 0.00 in0.0 mm 0.00 in0.0 mm 0.01 in0.3 mm
04:20 AM 57.5°F14.2°C 53.0°F11.7°C 85% 0.3 mph NNW0.5 kmh NNW 1.0 mph1.6 kmh 29.99 in1015.6 mb 0.00 in0.0 mm 0.00 in0.0 mm 0.01 in0.3 mm
04:25 AM 57.4°F14.1°C 52.9°F11.6°C 85% 0.4 mph NW0.6 kmh NW 1.0 mph1.6 kmh 29.99 in1015.6 mb 0.00 in0.0 mm 0.00 in0.0 mm 0.01 in0.3 mm
04:30 AM 57.4°F14.1°C 52.9°F11.6°C 85% 0.2 mph NW0.3 kmh NW 2.0 mph3.2 kmh 29.99 in1015.6 mb 0.00 in0.0 mm 0.00 in0.0 mm 0.01 in0.3 mm
04:35 AM 57.3°F14.1°C 52.8°F11.6°C 85% 0.3 mph NNW0.5 kmh NNW 2.0 mph3.2 kmh 29.99 in1015.6 mb 0.00 in0.0 mm 0.00 in0.0 mm 0.01 in0.3 mm
04:40 AM 57.2°F14.0°C 53.0°F11.7°C 86% 0.9 mph NNW1.4 kmh NNW 3.0 mph4.8 kmh 29.99 in1015.6 mb 0.00 in0.0 mm 0.00 in0.0 mm 0.01 in0.3 mm
04:45 AM 57.2°F14.0°C 53.0°F11.7°C 86% 0.6 mph N1.0 kmh N 3.0 mph4.8 kmh 30.00 in1015.9 mb 0.00 in0.0 mm 0.00 in0.0 mm 0.01 in0.3 mm
04:50 AM 57.1°F13.9°C 53.0°F11.7°C 86% 0.2 mph NNW0.3 kmh NNW 2.0 mph3.2 kmh 30.00 in1015.9 mb 0.00 in0.0 mm 0.00 in0.0 mm 0.01 in0.3 mm
04:55 AM 57.0°F13.9°C 53.2°F11.8°C 87% 0.1 mph NNW0.2 kmh NNW 1.0 mph1.6 kmh 30.00 in1015.9 mb 0.00 in0.0 mm 0.00 in0.0 mm 0.01 in0.3 mm
05:00 AM 56.9°F13.8°C 53.1°F11.7°C 87% 0.1 mph NW0.2 kmh NW 1.0 mph1.6 kmh 30.00 in1015.9 mb 0.00 in0.0 mm 0.00 in0.0 mm 0.01 in0.3 mm
05:05 AM 56.8°F13.8°C 53.3°F11.8°C 88% Calm Calm 1.0 mph1.6 kmh 30.00 in1015.9 mb 0.00 in0.0 mm 0.00 in0.0 mm 0.01 in0.3 mm
05:10 AM 56.8°F13.8°C 53.3°F11.8°C 88% 0.5 mph N0.8 kmh N 2.0 mph3.2 kmh 30.00 in1015.9 mb 0.00 in0.0 mm 0.00 in0.0 mm 0.01 in0.3 mm
05:15 AM 56.8°F13.8°C 53.3°F11.8°C 88% 0.2 mph N0.3 kmh N 2.0 mph3.2 kmh 30.01 in1016.3 mb 0.00 in0.0 mm 0.00 in0.0 mm 0.01 in0.3 mm
05:20 AM 56.8°F13.8°C 53.3°F11.8°C 88% 0.5 mph N0.8 kmh N 2.0 mph3.2 kmh 30.01 in1016.3 mb 0.00 in0.0 mm 0.00 in0.0 mm 0.01 in0.3 mm
05:25 AM 56.8°F13.8°C 53.6°F12.0°C 89% Calm Calm 2.0 mph3.2 kmh 30.01 in1016.3 mb 0.00 in0.0 mm 0.00 in0.0 mm 0.01 in0.3 mm
05:30 AM 56.7°F13.7°C 53.5°F11.9°C 89% Calm Calm 1.0 mph1.6 kmh 30.01 in1016.3 mb 0.01 in0.3 mm 0.12 in3.0 mm 0.02 in0.5 mm
05:35 AM 56.6°F13.7°C 53.4°F11.9°C 89% Calm Calm 1.0 mph1.6 kmh 30.01 in1016.3 mb 0.01 in0.3 mm 0.00 in0.0 mm 0.02 in0.5 mm
05:40 AM 56.5°F13.6°C 53.3°F11.8°C 89% Calm Calm 1.0 mph1.6 kmh 30.01 in1016.3 mb 0.01 in0.3 mm 0.00 in0.0 mm 0.02 in0.5 mm
05:45 AM 56.5°F13.6°C 53.6°F12.0°C 90% Calm Calm -- 30.01 in1016.3 mb 0.01 in0.3 mm 0.00 in0.0 mm 0.02 in0.5 mm
05:50 AM 56.5°F13.6°C 53.6°F12.0°C 90% Calm Calm -- 30.01 in1016.3 mb 0.01 in0.3 mm 0.00 in0.0 mm 0.02 in0.5 mm
05:55 AM 56.5°F13.6°C 53.6°F12.0°C 90% Calm Calm -- 30.01 in1016.3 mb 0.01 in0.3 mm 0.00 in0.0 mm 0.02 in0.5 mm
06:00 AM 56.5°F13.6°C 53.6°F12.0°C 90% Calm Calm -- 30.01 in1016.3 mb 0.01 in0.3 mm 0.00 in0.0 mm 0.02 in0.5 mm
06:05 AM 56.5°F13.6°C 53.6°F12.0°C 90% Calm Calm -- 30.01 in1016.3 mb 0.01 in0.3 mm 0.00 in0.0 mm 0.02 in0.5 mm
06:10 AM 56.5°F13.6°C 53.6°F12.0°C 90% Calm Calm -- 30.01 in1016.3 mb 0.01 in0.3 mm 0.00 in0.0 mm 0.02 in0.5 mm
06:15 AM 56.6°F13.7°C 53.7°F12.1°C 90% Calm Calm -- 30.01 in1016.3 mb 0.01 in0.3 mm 0.00 in0.0 mm 0.02 in0.5 mm
06:20 AM 56.6°F13.7°C 53.7°F12.1°C 90% Calm Calm -- 30.01 in1016.3 mb 0.01 in0.3 mm 0.00 in0.0 mm 0.02 in0.5 mm
06:25 AM 56.6°F13.7°C 53.7°F12.1°C 90% Calm Calm -- 30.01 in1016.3 mb 0.01 in0.3 mm 0.00 in0.0 mm 0.02 in0.5 mm
06:30 AM 56.7°F13.7°C 54.1°F12.3°C 91% 0.1 mph NW0.2 kmh NW 1.0 mph1.6 kmh 30.02 in1016.6 mb 0.00 in0.0 mm 0.00 in0.0 mm 0.02 in0.5 mm
06:35 AM 56.8°F13.8°C 54.2°F12.3°C 91% 0.4 mph NNW0.6 kmh NNW 2.0 mph3.2 kmh 30.02 in1016.6 mb 0.00 in0.0 mm 0.00 in0.0 mm 0.02 in0.5 mm
06:40 AM 56.8°F13.8°C 53.9°F12.2°C 90% 0.7 mph NW1.1 kmh NW 2.0 mph3.2 kmh 30.02 in1016.6 mb 0.01 in0.3 mm 0.12 in3.0 mm 0.03 in0.8 mm
06:45 AM 56.8°F13.8°C 53.9°F12.2°C 90% 0.1 mph NNW0.2 kmh NNW 2.0 mph3.2 kmh 30.02 in1016.6 mb 0.02 in0.5 mm 0.12 in3.0 mm 0.04 in1.0 mm
06:50 AM 56.8°F13.8°C 53.9°F12.2°C 90% Calm Calm 1.0 mph1.6 kmh 30.02 in1016.6 mb 0.02 in0.5 mm 0.00 in0.0 mm 0.04 in1.0 mm
06:55 AM 56.7°F13.7°C 54.1°F12.3°C 91% Calm Calm 1.0 mph1.6 kmh 30.03 in1016.9 mb 0.02 in0.5 mm 0.00 in0.0 mm 0.04 in1.0 mm
07:00 AM 56.7°F13.7°C 54.1°F12.3°C 91% Calm Calm -- 30.03 in1016.9 mb 0.02 in0.5 mm 0.00 in0.0 mm 0.04 in1.0 mm
07:05 AM 56.7°F13.7°C 54.1°F12.3°C 91% Calm Calm -- 30.03 in1016.9 mb 0.02 in0.5 mm 0.00 in0.0 mm 0.04 in1.0 mm
07:10 AM 56.7°F13.7°C 54.1°F12.3°C 91% Calm Calm -- 30.03 in1016.9 mb 0.02 in0.5 mm 0.00 in0.0 mm 0.04 in1.0 mm
07:15 AM 56.7°F13.7°C 54.1°F12.3°C 91% 0.1 mph N0.2 kmh N 1.0 mph1.6 kmh 30.03 in1016.9 mb 0.02 in0.5 mm 0.00 in0.0 mm 0.04 in1.0 mm
07:20 AM 56.7°F13.7°C 54.1°F12.3°C 91% 0.1 mph NW0.2 kmh NW 1.0 mph1.6 kmh 30.04 in1017.3 mb 0.03 in0.8 mm 0.12 in3.0 mm 0.05 in1.3 mm
07:25 AM 56.7°F13.7°C 54.1°F12.3°C 91% 0.1 mph NW0.2 kmh NW 1.0 mph1.6 kmh 30.04 in1017.3 mb 0.03 in0.8 mm 0.00 in0.0 mm 0.05 in1.3 mm
07:30 AM 56.7°F13.7°C 54.4°F12.4°C 92% Calm Calm 1.0 mph1.6 kmh 30.04 in1017.3 mb 0.03 in0.8 mm 0.00 in0.0 mm 0.05 in1.3 mm
07:35 AM 56.7°F13.7°C 54.4°F12.4°C 92% Calm Calm 1.0 mph1.6 kmh 30.04 in1017.3 mb 0.03 in0.8 mm 0.00 in0.0 mm 0.05 in1.3 mm
07:40 AM 56.7°F13.7°C 54.4°F12.4°C 92% 0.2 mph NE0.3 kmh NE 2.0 mph3.2 kmh 30.04 in1017.3 mb 0.02 in0.5 mm 0.00 in0.0 mm 0.05 in1.3 mm
07:45 AM 56.8°F13.8°C 54.5°F12.5°C 92% 0.1 mph ENE0.2 kmh ENE 2.0 mph3.2 kmh 30.04 in1017.3 mb 0.01 in0.3 mm 0.00 in0.0 mm 0.05 in1.3 mm
07:50 AM 56.9°F13.8°C 54.3°F12.4°C 91% 0.1 mph ENE0.2 kmh ENE 1.0 mph1.6 kmh 30.05 in1017.6 mb 0.01 in0.3 mm 0.00 in0.0 mm 0.05 in1.3 mm
07:55 AM 57.0°F13.9°C 54.7°F12.6°C 92% 0.1 mph N0.2 kmh N 1.0 mph1.6 kmh 30.05 in1017.6 mb 0.01 in0.3 mm 0.00 in0.0 mm 0.05 in1.3 mm
08:00 AM 57.1°F13.9°C 54.8°F12.7°C 92% Calm Calm 1.0 mph1.6 kmh 30.05 in1017.6 mb 0.01 in0.3 mm 0.00 in0.0 mm 0.05 in1.3 mm
08:05 AM 57.2°F14.0°C 54.9°F12.7°C 92% Calm Calm 1.0 mph1.6 kmh 30.06 in1017.9 mb 0.01 in0.3 mm 0.00 in0.0 mm 0.05 in1.3 mm
08:10 AM 57.2°F14.0°C 54.6°F12.6°C 91% 0.1 mph N0.2 kmh N 1.0 mph1.6 kmh 30.06 in1017.9 mb 0.01 in0.3 mm 0.00 in0.0 mm 0.05 in1.3 mm
08:15 AM 57.4°F14.1°C 55.1°F12.8°C 92% 0.3 mph NNW0.5 kmh NNW 2.0 mph3.2 kmh 30.06 in1017.9 mb 0.01 in0.3 mm 0.00 in0.0 mm 0.05 in1.3 mm
08:20 AM 57.4°F14.1°C 54.8°F12.7°C 91% 0.2 mph NE0.3 kmh NE 2.0 mph3.2 kmh 30.06 in1017.9 mb 0.00 in0.0 mm 0.00 in0.0 mm 0.05 in1.3 mm
08:25 AM 57.6°F14.2°C 55.0°F12.8°C 91% 0.1 mph NE0.2 kmh NE 2.0 mph3.2 kmh 30.06 in1017.9 mb 0.00 in0.0 mm 0.00 in0.0 mm 0.05 in1.3 mm
08:30 AM 57.7°F14.3°C 55.1°F12.8°C 91% 0.2 mph ENE0.3 kmh ENE 2.0 mph3.2 kmh 30.06 in1017.9 mb 0.00 in0.0 mm 0.00 in0.0 mm 0.05 in1.3 mm
08:35 AM 57.8°F14.3°C 55.2°F12.9°C 91% 0.2 mph ENE0.3 kmh ENE 2.0 mph3.2 kmh 30.06 in1017.9 mb 0.00 in0.0 mm 0.00 in0.0 mm 0.05 in1.3 mm
08:40 AM 58.1°F14.5°C 55.5°F13.1°C 91% 0.1 mph NW0.2 kmh NW 2.0 mph3.2 kmh 30.06 in1017.9 mb 0.00 in0.0 mm 0.00 in0.0 mm 0.05 in1.3 mm
08:45 AM 58.3°F14.6°C 55.7°F13.2°C 91% Calm Calm 1.0 mph1.6 kmh 30.06 in1017.9 mb 0.00 in0.0 mm 0.00 in0.0 mm 0.05 in1.3 mm
08:50 AM 58.6°F14.8°C 55.7°F13.2°C 90% Calm Calm -- 30.06 in1017.9 mb 0.00 in0.0 mm 0.00 in0.0 mm 0.05 in1.3 mm
08:55 AM 59.0°F15.0°C 56.1°F13.4°C 90% Calm Calm -- 30.06 in1017.9 mb 0.00 in0.0 mm 0.00 in0.0 mm 0.05 in1.3 mm
09:00 AM 59.4°F15.2°C 56.2°F13.4°C 89% Calm Calm -- 30.06 in1017.9 mb 0.00 in0.0 mm 0.00 in0.0 mm 0.05 in1.3 mm
09:05 AM 59.5°F15.3°C 55.3°F12.9°C 86% 0.1 mph NNE0.2 kmh NNE 1.0 mph1.6 kmh 30.06 in1017.9 mb 0.00 in0.0 mm 0.00 in0.0 mm 0.05 in1.3 mm
09:10 AM 59.9°F15.5°C 55.7°F13.2°C 86% 0.1 mph NE0.2 kmh NE 1.0 mph1.6 kmh 30.06 in1017.9 mb 0.00 in0.0 mm 0.00 in0.0 mm 0.05 in1.3 mm
09:15 AM 60.4°F15.8°C 55.9°F13.3°C 85% 0.1 mph SSE0.2 kmh SSE 1.0 mph1.6 kmh 30.07 in1018.3 mb 0.00 in0.0 mm 0.00 in0.0 mm 0.05 in1.3 mm
09:20 AM 60.8°F16.0°C 56.3°F13.5°C 85% 0.3 mph ENE0.5 kmh ENE 2.0 mph3.2 kmh 30.07 in1018.3 mb 0.00 in0.0 mm 0.00 in0.0 mm 0.05 in1.3 mm
09:25 AM 61.3°F16.3°C 56.1°F13.4°C 83% 0.3 mph ESE0.5 kmh ESE 2.0 mph3.2 kmh 30.07 in1018.3 mb 0.00 in0.0 mm 0.00 in0.0 mm 0.05 in1.3 mm
09:30 AM 61.6°F16.4°C 56.0°F13.3°C 82% 0.1 mph SE0.2 kmh SE 2.0 mph3.2 kmh 30.07 in1018.3 mb 0.00 in0.0 mm 0.00 in0.0 mm 0.05 in1.3 mm
09:35 AM 61.8°F16.6°C 56.6°F13.7°C 83% 0.4 mph ESE0.6 kmh ESE 2.0 mph3.2 kmh 30.07 in1018.3 mb 0.00 in0.0 mm 0.00 in0.0 mm 0.05 in1.3 mm
09:40 AM 62.2°F16.8°C 56.6°F13.7°C 82% 0.2 mph S0.3 kmh S 2.0 mph3.2 kmh 30.07 in1018.3 mb 0.00 in0.0 mm 0.00 in0.0 mm 0.05 in1.3 mm
09:45 AM 62.7°F17.1°C 56.8°F13.8°C 81% 0.2 mph SE0.3 kmh SE 2.0 mph3.2 kmh 30.07 in1018.3 mb 0.00 in0.0 mm 0.00 in0.0 mm 0.05 in1.3 mm
09:50 AM 63.1°F17.3°C 56.8°F13.8°C 80% 0.2 mph SE0.3 kmh SE 2.0 mph3.2 kmh 30.08 in1018.6 mb 0.00 in0.0 mm 0.00 in0.0 mm 0.05 in1.3 mm
09:55 AM 62.8°F17.1°C 55.8°F13.2°C 78% 1.5 mph ENE2.4 kmh ENE 4.0 mph6.4 kmh 30.08 in1018.6 mb 0.00 in0.0 mm 0.00 in0.0 mm 0.05 in1.3 mm
10:00 AM 62.5°F16.9°C 55.9°F13.3°C 79% 1.0 mph ENE1.6 kmh ENE 5.0 mph8.0 kmh 30.07 in1018.3 mb 0.00 in0.0 mm 0.00 in0.0 mm 0.05 in1.3 mm
10:05 AM 63.0°F17.2°C 56.4°F13.6°C 79% Calm Calm 5.0 mph8.0 kmh 30.08 in1018.6 mb 0.00 in0.0 mm 0.00 in0.0 mm 0.05 in1.3 mm
10:10 AM 64.0°F17.8°C 57.0°F13.9°C 78% 0.3 mph SSE0.5 kmh SSE 2.0 mph3.2 kmh 30.08 in1018.6 mb 0.00 in0.0 mm 0.00 in0.0 mm 0.05 in1.3 mm
10:15 AM 64.6°F18.1°C 56.5°F13.6°C 75% 0.5 mph SE0.8 kmh SE 2.0 mph3.2 kmh 30.08 in1018.6 mb 0.00 in0.0 mm 0.00 in0.0 mm 0.05 in1.3 mm
10:20 AM 65.0°F18.3°C 56.5°F13.6°C 74% 0.1 mph SSE0.2 kmh SSE 2.0 mph3.2 kmh 30.08 in1018.6 mb 0.00 in0.0 mm 0.00 in0.0 mm 0.05 in1.3 mm
10:25 AM 65.1°F18.4°C 57.0°F13.9°C 75% 0.1 mph WSW0.2 kmh WSW 1.0 mph1.6 kmh 30.08 in1018.6 mb 0.00 in0.0 mm 0.00 in0.0 mm 0.05 in1.3 mm
10:30 AM 65.2°F18.4°C 56.3°F13.5°C 73% 0.4 mph SSE0.6 kmh SSE 2.0 mph3.2 kmh 30.08 in1018.6 mb 0.00 in0.0 mm 0.00 in0.0 mm 0.05 in1.3 mm
10:35 AM 65.0°F18.3°C 56.5°F13.6°C 74% 0.4 mph ENE0.6 kmh ENE 4.0 mph6.4 kmh 30.08 in1018.6 mb 0.00 in0.0 mm 0.00 in0.0 mm 0.05 in1.3 mm
10:40 AM 65.4°F18.6°C 57.3°F14.1°C 75% Calm Calm 4.0 mph6.4 kmh 30.08 in1018.6 mb 0.00 in0.0 mm 0.00 in0.0 mm 0.05 in1.3 mm
10:45 AM 65.9°F18.8°C 57.0°F13.9°C 73% 0.5 mph S0.8 kmh S 2.0 mph3.2 kmh 30.08 in1018.6 mb 0.00 in0.0 mm 0.00 in0.0 mm 0.05 in1.3 mm
10:50 AM 66.0°F18.9°C 56.3°F13.5°C 71% 0.7 mph E1.1 kmh E 3.0 mph4.8 kmh 30.08 in1018.6 mb 0.00 in0.0 mm 0.00 in0.0 mm 0.05 in1.3 mm
10:55 AM 66.2°F19.0°C 56.9°F13.8°C 72% 0.3 mph S0.5 kmh S 3.0 mph4.8 kmh 30.07 in1018.3 mb 0.00 in0.0 mm 0.00 in0.0 mm 0.05 in1.3 mm
11:00 AM 67.0°F19.4°C 56.5°F13.6°C 69% 0.4 mph S0.6 kmh S 2.0 mph3.2 kmh 30.08 in1018.6 mb 0.00 in0.0 mm 0.00 in0.0 mm 0.05 in1.3 mm
11:05 AM 67.5°F19.7°C 55.7°F13.2°C 66% 0.5 mph E0.8 kmh E 2.0 mph3.2 kmh 30.07 in1018.3 mb 0.00 in0.0 mm 0.00 in0.0 mm 0.05 in1.3 mm
11:10 AM 66.9°F19.4°C 55.6°F13.1°C 67% 1.2 mph ENE1.9 kmh ENE 4.0 mph6.4 kmh 30.07 in1018.3 mb 0.00 in0.0 mm 0.00 in0.0 mm 0.05 in1.3 mm
11:15 AM 67.9°F19.9°C 57.3°F14.1°C 69% 0.4 mph SW0.6 kmh SW 4.0 mph6.4 kmh 30.08 in1018.6 mb 0.00 in0.0 mm 0.00 in0.0 mm 0.05 in1.3 mm
11:20 AM 69.4°F20.8°C 57.1°F13.9°C 65% 0.5 mph S0.8 kmh S 2.0 mph3.2 kmh 30.08 in1018.6 mb 0.00 in0.0 mm 0.00 in0.0 mm 0.05 in1.3 mm
11:25 AM 69.8°F21.0°C 55.7°F13.2°C 61% 0.7 mph E1.1 kmh E 3.0 mph4.8 kmh 30.08 in1018.6 mb 0.00 in0.0 mm 0.00 in0.0 mm 0.05 in1.3 mm
11:30 AM 69.1°F20.6°C 56.0°F13.3°C 63% 0.9 mph E1.4 kmh E 3.0 mph4.8 kmh 30.08 in1018.6 mb 0.00 in0.0 mm 0.00 in0.0 mm 0.05 in1.3 mm
11:35 AM 69.3°F20.7°C 55.3°F12.9°C 61% 0.9 mph NE1.4 kmh NE 3.0 mph4.8 kmh 30.08 in1018.6 mb 0.00 in0.0 mm 0.00 in0.0 mm 0.05 in1.3 mm
11:40 AM 70.1°F21.2°C 56.5°F13.6°C 62% 0.7 mph SSE1.1 kmh SSE 3.0 mph4.8 kmh 30.08 in1018.6 mb 0.00 in0.0 mm 0.00 in0.0 mm 0.05 in1.3 mm
11:45 AM 71.0°F21.7°C 56.4°F13.6°C 60% 0.8 mph SSW1.3 kmh SSW 3.0 mph4.8 kmh 30.08 in1018.6 mb 0.00 in0.0 mm 0.00 in0.0 mm 0.05 in1.3 mm
11:50 AM 71.1°F21.7°C 56.0°F13.3°C 59% 1.1 mph NE1.8 kmh NE 3.0 mph4.8 kmh 30.08 in1018.6 mb 0.00 in0.0 mm 0.00 in0.0 mm 0.05 in1.3 mm
11:55 AM 71.3°F21.8°C 56.2°F13.4°C 59% 0.2 mph NNW0.3 kmh NNW 3.0 mph4.8 kmh 30.08 in1018.6 mb 0.00 in0.0 mm 0.00 in0.0 mm 0.05 in1.3 mm
12:00 PM 70.9°F21.6°C 54.9°F12.7°C 57% 0.9 mph NNE1.4 kmh NNE 4.0 mph6.4 kmh 30.08 in1018.6 mb 0.00 in0.0 mm 0.00 in0.0 mm 0.05 in1.3 mm
12:05 PM 70.6°F21.4°C 55.1°F12.8°C 58% 0.5 mph NE0.8 kmh NE 4.0 mph6.4 kmh 30.07 in1018.3 mb 0.00 in0.0 mm 0.00 in0.0 mm 0.05 in1.3 mm
12:10 PM 70.3°F21.3°C 55.3°F12.9°C 59% 0.9 mph N1.4 kmh N 3.0 mph4.8 kmh 30.07 in1018.3 mb 0.00 in0.0 mm 0.00 in0.0 mm 0.05 in1.3 mm
12:15 PM 70.3°F21.3°C 54.8°F12.7°C 58% 1.3 mph N2.1 kmh N 4.0 mph6.4 kmh 30.07 in1018.3 mb 0.00 in0.0 mm 0.00 in0.0 mm 0.05 in1.3 mm
12:20 PM 69.6°F20.9°C 55.1°F12.8°C 60% 1.3 mph N2.1 kmh N 4.0 mph6.4 kmh 30.07 in1018.3 mb 0.00 in0.0 mm 0.00 in0.0 mm 0.05 in1.3 mm
12:25 PM 69.7°F20.9°C 54.7°F12.6°C 59% 1.3 mph NNW2.1 kmh NNW 4.0 mph6.4 kmh 30.07 in1018.3 mb 0.00 in0.0 mm 0.00 in0.0 mm 0.05 in1.3 mm
12:30 PM 69.7°F20.9°C 53.8°F12.1°C 57% 0.9 mph NNW1.4 kmh NNW 4.0 mph6.4 kmh 30.07 in1018.3 mb 0.00 in0.0 mm 0.00 in0.0 mm 0.05 in1.3 mm
12:35 PM 69.5°F20.8°C 53.6°F12.0°C 57% 0.1 mph W0.2 kmh W 3.0 mph4.8 kmh 30.07 in1018.3 mb 0.00 in0.0 mm 0.00 in0.0 mm 0.05 in1.3 mm
12:40 PM 69.4°F20.8°C 54.0°F12.2°C 58% 0.1 mph NNE0.2 kmh NNE 1.0 mph1.6 kmh 30.07 in1018.3 mb 0.00 in0.0 mm 0.00 in0.0 mm 0.05 in1.3 mm
12:45 PM 70.7°F21.5°C 55.2°F12.9°C 58% 0.2 mph S0.3 kmh S 2.0 mph3.2 kmh 30.06 in1017.9 mb 0.00 in0.0 mm 0.00 in0.0 mm 0.05 in1.3 mm
12:50 PM 71.7°F22.1°C 54.7°F12.6°C 55% 0.3 mph SSW0.5 kmh SSW 2.0 mph3.2 kmh 30.07 in1018.3 mb 0.00 in0.0 mm 0.00 in0.0 mm 0.05 in1.3 mm
12:55 PM 72.0°F22.2°C 54.4°F12.4°C 54% 1.0 mph NNW1.6 kmh NNW 4.0 mph6.4 kmh 30.06 in1017.9 mb 0.00 in0.0 mm 0.00 in0.0 mm 0.05 in1.3 mm
01:00 PM 72.4°F22.4°C 54.3°F12.4°C 53% 1.5 mph NW2.4 kmh NW 5.0 mph8.0 kmh 30.06 in1017.9 mb 0.00 in0.0 mm 0.00 in0.0 mm 0.05 in1.3 mm
01:05 PM 71.9°F22.2°C 53.8°F12.1°C 53% 0.5 mph NE0.8 kmh NE 5.0 mph8.0 kmh 30.06 in1017.9 mb 0.00 in0.0 mm 0.00 in0.0 mm 0.05 in1.3 mm
01:10 PM 71.1°F21.7°C 53.6°F12.0°C 54% 1.0 mph NE1.6 kmh NE 3.0 mph4.8 kmh 30.06 in1017.9 mb 0.00 in0.0 mm 0.00 in0.0 mm 0.05 in1.3 mm
01:15 PM 69.7°F20.9°C 53.3°F11.8°C 56% 1.7 mph ENE2.7 kmh ENE 5.0 mph8.0 kmh 30.06 in1017.9 mb 0.00 in0.0 mm 0.00 in0.0 mm 0.05 in1.3 mm
01:20 PM 69.8°F21.0°C 53.9°F12.2°C 57% 1.5 mph NW2.4 kmh NW 5.0 mph8.0 kmh 30.05 in1017.6 mb 0.00 in0.0 mm 0.00 in0.0 mm 0.05 in1.3 mm
01:25 PM 70.6°F21.4°C 53.6°F12.0°C 55% 0.6 mph N1.0 kmh N 5.0 mph8.0 kmh 30.06 in1017.9 mb 0.00 in0.0 mm 0.00 in0.0 mm 0.05 in1.3 mm
01:30 PM 70.9°F21.6°C 54.4°F12.4°C 56% 0.5 mph WNW0.8 kmh WNW 3.0 mph4.8 kmh 30.05 in1017.6 mb 0.00 in0.0 mm 0.00 in0.0 mm 0.05 in1.3 mm
01:35 PM 70.9°F21.6°C 53.9°F12.2°C 55% 1.0 mph NNW1.6 kmh NNW 3.0 mph4.8 kmh 30.05 in1017.6 mb 0.00 in0.0 mm 0.00 in0.0 mm 0.05 in1.3 mm
01:40 PM 70.8°F21.6°C 53.3°F11.8°C 54% 1.3 mph NW2.1 kmh NW 4.0 mph6.4 kmh 30.05 in1017.6 mb 0.00 in0.0 mm 0.00 in0.0 mm 0.05 in1.3 mm
01:45 PM 71.4°F21.9°C 53.4°F11.9°C 53% 0.3 mph NNW0.5 kmh NNW 4.0 mph6.4 kmh 30.05 in1017.6 mb 0.00 in0.0 mm 0.00 in0.0 mm 0.05 in1.3 mm
01:50 PM 71.3°F21.8°C 53.8°F12.1°C 54% 0.7 mph SE1.1 kmh SE 3.0 mph4.8 kmh 30.05 in1017.6 mb 0.00 in0.0 mm 0.00 in0.0 mm 0.05 in1.3 mm
01:55 PM 72.0°F22.2°C 53.4°F11.9°C 52% 0.7 mph ESE1.1 kmh ESE 3.0 mph4.8 kmh 30.04 in1017.3 mb 0.00 in0.0 mm 0.00 in0.0 mm 0.05 in1.3 mm
02:00 PM 72.2°F22.3°C 53.6°F12.0°C 52% 0.4 mph S0.6 kmh S 3.0 mph4.8 kmh 30.04 in1017.3 mb 0.00 in0.0 mm 0.00 in0.0 mm 0.05 in1.3 mm
02:05 PM 73.3°F22.9°C 53.0°F11.7°C 49% 1.2 mph SSW1.9 kmh SSW 4.0 mph6.4 kmh 30.04 in1017.3 mb 0.00 in0.0 mm 0.00 in0.0 mm 0.05 in1.3 mm
02:10 PM 73.9°F23.3°C 53.0°F11.7°C 48% 1.4 mph S2.3 kmh S 4.0 mph6.4 kmh 30.04 in1017.3 mb 0.00 in0.0 mm 0.00 in0.0 mm 0.05 in1.3 mm
02:15 PM 74.1°F23.4°C 54.3°F12.4°C 50% 1.4 mph SSW2.3 kmh SSW 4.0 mph6.4 kmh 30.04 in1017.3 mb 0.00 in0.0 mm 0.00 in0.0 mm 0.05 in1.3 mm
02:20 PM 74.7°F23.7°C 53.1°F11.7°C 47% 0.6 mph SE1.0 kmh SE 4.0 mph6.4 kmh 30.04 in1017.3 mb 0.00 in0.0 mm 0.00 in0.0 mm 0.05 in1.3 mm
02:25 PM 74.0°F23.3°C 52.5°F11.4°C 47% 0.8 mph NE1.3 kmh NE 4.0 mph6.4 kmh 30.03 in1016.9 mb 0.00 in0.0 mm 0.00 in0.0 mm 0.05 in1.3 mm
02:30 PM 73.8°F23.2°C 53.4°F11.9°C 49% 0.2 mph NE0.3 kmh NE 4.0 mph6.4 kmh 30.03 in1016.9 mb 0.00 in0.0 mm 0.00 in0.0 mm 0.05 in1.3 mm
02:35 PM 74.6°F23.7°C 53.0°F11.7°C 47% 0.9 mph NW1.4 kmh NW 3.0 mph4.8 kmh 30.03 in1016.9 mb 0.00 in0.0 mm 0.00 in0.0 mm 0.05 in1.3 mm
02:40 PM 75.4°F24.1°C 52.6°F11.4°C 45% 0.1 mph SSE0.2 kmh SSE 3.0 mph4.8 kmh 30.03 in1016.9 mb 0.00 in0.0 mm 0.00 in0.0 mm 0.05 in1.3 mm
02:45 PM 75.9°F24.4°C 53.6°F12.0°C 46% 0.6 mph SE1.0 kmh SE 3.0 mph4.8 kmh 30.03 in1016.9 mb 0.00 in0.0 mm 0.00 in0.0 mm 0.05 in1.3 mm
02:50 PM 76.2°F24.6°C 54.5°F12.5°C 47% 0.2 mph S0.3 kmh S 3.0 mph4.8 kmh 30.02 in1016.6 mb 0.00 in0.0 mm 0.00 in0.0 mm 0.05 in1.3 mm
02:55 PM 76.4°F24.7°C 52.2°F11.2°C 43% 0.3 mph NW0.5 kmh NW 3.0 mph4.8 kmh 30.02 in1016.6 mb 0.00 in0.0 mm 0.00 in0.0 mm 0.05 in1.3 mm
03:00 PM 76.4°F24.7°C 52.9°F11.6°C 44% 0.9 mph NW1.4 kmh NW 3.0 mph4.8 kmh 30.02 in1016.6 mb 0.00 in0.0 mm 0.00 in0.0 mm 0.05 in1.3 mm
03:05 PM 75.8°F24.3°C 51.7°F10.9°C 43% 0.9 mph NNW1.4 kmh NNW 3.0 mph4.8 kmh 30.02 in1016.6 mb 0.00 in0.0 mm 0.00 in0.0 mm 0.05 in1.3 mm
03:10 PM 75.4°F24.1°C 51.3°F10.7°C 43% 0.6 mph NE1.0 kmh NE 3.0 mph4.8 kmh 30.02 in1016.6 mb 0.00 in0.0 mm 0.00 in0.0 mm 0.05 in1.3 mm
03:15 PM 75.3°F24.1°C 51.9°F11.1°C 44% 0.2 mph S0.3 kmh S 2.0 mph3.2 kmh 30.02 in1016.6 mb 0.00 in0.0 mm 0.00 in0.0 mm 0.05 in1.3 mm
03:20 PM 76.1°F24.5°C 53.2°F11.8°C 45% 0.2 mph S0.3 kmh S 2.0 mph3.2 kmh 30.02 in1016.6 mb 0.00 in0.0 mm 0.00 in0.0 mm 0.05 in1.3 mm
03:25 PM 76.7°F24.8°C 52.5°F11.4°C 43% 0.3 mph ESE0.5 kmh ESE 2.0 mph3.2 kmh 30.02 in1016.6 mb 0.00 in0.0 mm 0.00 in0.0 mm 0.05 in1.3 mm
03:30 PM 77.0°F25.0°C 52.8°F11.6°C 43% 0.2 mph S0.3 kmh S 2.0 mph3.2 kmh 30.02 in1016.6 mb 0.00 in0.0 mm 0.00 in0.0 mm 0.05 in1.3 mm
03:35 PM 76.8°F24.9°C 52.6°F11.4°C 43% 0.4 mph SW0.6 kmh SW 3.0 mph4.8 kmh 30.02 in1016.6 mb 0.00 in0.0 mm 0.00 in0.0 mm 0.05 in1.3 mm
03:40 PM 76.9°F24.9°C 51.4°F10.8°C 41% 0.4 mph SSW0.6 kmh SSW 3.0 mph4.8 kmh 30.02 in1016.6 mb 0.00 in0.0 mm 0.00 in0.0 mm 0.05 in1.3 mm
03:45 PM 76.9°F24.9°C 51.4°F10.8°C 41% 0.4 mph NW0.6 kmh NW 3.0 mph4.8 kmh 30.02 in1016.6 mb 0.00 in0.0 mm 0.00 in0.0 mm 0.05 in1.3 mm
03:50 PM 76.7°F24.8°C 51.2°F10.7°C 41% 0.5 mph NE0.8 kmh NE 3.0 mph4.8 kmh 30.02 in1016.6 mb 0.00 in0.0 mm 0.00 in0.0 mm 0.05 in1.3 mm
03:55 PM 76.7°F24.8°C 51.9°F11.1°C 42% 1.0 mph S1.6 kmh S 4.0 mph6.4 kmh 30.02 in1016.6 mb 0.00 in0.0 mm 0.00 in0.0 mm 0.05 in1.3 mm
04:00 PM 76.1°F24.5°C 50.7°F10.4°C 41% 0.3 mph SSW0.5 kmh SSW 4.0 mph6.4 kmh 30.02 in1016.6 mb 0.00 in0.0 mm 0.00 in0.0 mm 0.05 in1.3 mm
04:05 PM 75.5°F24.2°C 50.8°F10.4°C 42% Calm Calm 2.0 mph3.2 kmh 30.02 in1016.6 mb 0.00 in0.0 mm 0.00 in0.0 mm 0.05 in1.3 mm
04:10 PM 75.9°F24.4°C 51.1°F10.6°C 42% 0.2 mph SE0.3 kmh SE 1.0 mph1.6 kmh 30.02 in1016.6 mb 0.00 in0.0 mm 0.00 in0.0 mm 0.05 in1.3 mm
04:15 PM 76.1°F24.5°C 50.7°F10.4°C 41% 0.4 mph SE0.6 kmh SE 2.0 mph3.2 kmh 30.02 in1016.6 mb 0.00 in0.0 mm 0.00 in0.0 mm 0.05 in1.3 mm
04:20 PM 75.7°F24.3°C 49.6°F9.8°C 40% 0.6 mph ENE1.0 kmh ENE 2.0 mph3.2 kmh 30.02 in1016.6 mb 0.00 in0.0 mm 0.00 in0.0 mm 0.05 in1.3 mm
04:25 PM 74.7°F23.7°C 50.7°F10.4°C 43% 0.7 mph ENE1.1 kmh ENE 2.0 mph3.2 kmh 30.02 in1016.6 mb 0.00 in0.0 mm 0.00 in0.0 mm 0.05 in1.3 mm
04:30 PM 75.5°F24.2°C 50.8°F10.4°C 42% Calm Calm 2.0 mph3.2 kmh 30.02 in1016.6 mb 0.00 in0.0 mm 0.00 in0.0 mm 0.05 in1.3 mm
04:35 PM 75.7°F24.3°C 51.0°F10.6°C 42% 0.9 mph S1.4 kmh S 4.0 mph6.4 kmh 30.02 in1016.6 mb 0.00 in0.0 mm 0.00 in0.0 mm 0.05 in1.3 mm
04:40 PM 75.4°F24.1°C 50.0°F10.0°C 41% 0.2 mph SW0.3 kmh SW 4.0 mph6.4 kmh 30.02 in1016.6 mb 0.00 in0.0 mm 0.00 in0.0 mm 0.05 in1.3 mm
04:45 PM 75.5°F24.2°C 50.1°F10.1°C 41% 0.2 mph WSW0.3 kmh WSW 2.0 mph3.2 kmh 30.02 in1016.6 mb 0.00 in0.0 mm 0.00 in0.0 mm 0.05 in1.3 mm
04:50 PM 75.4°F24.1°C 50.0°F10.0°C 41% 0.5 mph S0.8 kmh S 2.0 mph3.2 kmh 30.02 in1016.6 mb 0.00 in0.0 mm 0.00 in0.0 mm 0.05 in1.3 mm
04:55 PM 75.5°F24.2°C 50.1°F10.1°C 41% Calm Calm 2.0 mph3.2 kmh 30.02 in1016.6 mb 0.00 in0.0 mm 0.00 in0.0 mm 0.05 in1.3 mm
05:00 PM 75.5°F24.2°C 50.1°F10.1°C 41% Calm Calm -- 30.02 in1016.6 mb 0.00 in0.0 mm 0.00 in0.0 mm 0.05 in1.3 mm
05:05 PM 75.9°F24.4°C 50.5°F10.3°C 41% 0.1 mph WSW0.2 kmh WSW 1.0 mph1.6 kmh 30.02 in1016.6 mb 0.00 in0.0 mm 0.00 in0.0 mm 0.05 in1.3 mm
05:10 PM 75.9°F24.4°C 50.5°F10.3°C 41% 0.2 mph WNW0.3 kmh WNW 2.0 mph3.2 kmh 30.02 in1016.6 mb 0.00 in0.0 mm 0.00 in0.0 mm 0.05 in1.3 mm
05:15 PM 76.0°F24.4°C 50.6°F10.3°C 41% 0.1 mph NW0.2 kmh NW 2.0 mph3.2 kmh 30.02 in1016.6 mb 0.00 in0.0 mm 0.00 in0.0 mm 0.05 in1.3 mm
05:20 PM 76.2°F24.6°C 50.1°F10.1°C 40% Calm Calm 1.0 mph1.6 kmh 30.03 in1016.9 mb 0.00 in0.0 mm 0.00 in0.0 mm 0.05 in1.3 mm
05:25 PM 75.8°F24.3°C 49.7°F9.8°C 40% 0.1 mph N0.2 kmh N 1.0 mph1.6 kmh 30.03 in1016.9 mb 0.00 in0.0 mm 0.00 in0.0 mm 0.05 in1.3 mm
05:30 PM 75.7°F24.3°C 50.3°F10.2°C 41% Calm Calm 1.0 mph1.6 kmh 30.03 in1016.9 mb 0.00 in0.0 mm 0.00 in0.0 mm 0.05 in1.3 mm
05:35 PM 76.0°F24.4°C 50.6°F10.3°C 41% 0.1 mph WSW0.2 kmh WSW 1.0 mph1.6 kmh 30.03 in1016.9 mb 0.00 in0.0 mm 0.00 in0.0 mm 0.05 in1.3 mm
05:40 PM 76.0°F24.4°C 50.6°F10.3°C 41% 0.1 mph SSE0.2 kmh SSE 1.0 mph1.6 kmh 30.03 in1016.9 mb 0.00 in0.0 mm 0.00 in0.0 mm 0.05 in1.3 mm
05:45 PM 76.1°F24.5°C 50.7°F10.4°C 41% Calm Calm 1.0 mph1.6 kmh 30.03 in1016.9 mb 0.00 in0.0 mm 0.00 in0.0 mm 0.05 in1.3 mm
05:50 PM 76.1°F24.5°C 50.0°F10.0°C 40% 0.3 mph S0.5 kmh S 2.0 mph3.2 kmh 30.03 in1016.9 mb 0.00 in0.0 mm 0.00 in0.0 mm 0.05 in1.3 mm
05:55 PM 75.8°F24.3°C 50.4°F10.2°C 41% Calm Calm 2.0 mph3.2 kmh 30.03 in1016.9 mb 0.00 in0.0 mm 0.00 in0.0 mm 0.05 in1.3 mm
06:00 PM 75.8°F24.3°C 50.4°F10.2°C 41% 0.2 mph S0.3 kmh S 2.0 mph3.2 kmh 30.03 in1016.9 mb 0.00 in0.0 mm 0.00 in0.0 mm 0.05 in1.3 mm
06:05 PM 75.8°F24.3°C 50.4°F10.2°C 41% 0.1 mph S0.2 kmh S 2.0 mph3.2 kmh 30.03 in1016.9 mb 0.00 in0.0 mm 0.00 in0.0 mm 0.05 in1.3 mm
06:10 PM 74.9°F23.8°C 50.2°F10.1°C 42% 0.4 mph S0.6 kmh S 3.0 mph4.8 kmh 30.03 in1016.9 mb 0.00 in0.0 mm 0.00 in0.0 mm 0.05 in1.3 mm
06:15 PM 73.8°F23.2°C 49.9°F9.9°C 43% 0.1 mph SSW0.2 kmh SSW 3.0 mph4.8 kmh 30.03 in1016.9 mb 0.00 in0.0 mm 0.00 in0.0 mm 0.05 in1.3 mm
06:20 PM 73.0°F22.8°C 49.2°F9.6°C 43% Calm Calm 1.0 mph1.6 kmh 30.03 in1016.9 mb 0.00 in0.0 mm 0.00 in0.0 mm 0.05 in1.3 mm
06:25 PM 72.4°F22.4°C 49.2°F9.6°C 44% Calm Calm 1.0 mph1.6 kmh 30.03 in1016.9 mb 0.00 in0.0 mm 0.00 in0.0 mm 0.05 in1.3 mm
06:30 PM 71.8°F22.1°C 49.3°F9.6°C 45% Calm Calm -- 30.03 in1016.9 mb 0.00 in0.0 mm 0.00 in0.0 mm 0.05 in1.3 mm
06:35 PM 71.1°F21.7°C 49.3°F9.6°C 46% Calm Calm -- 30.03 in1016.9 mb 0.00 in0.0 mm 0.00 in0.0 mm 0.05 in1.3 mm
06:40 PM 70.5°F21.4°C 49.3°F9.6°C 47% Calm Calm -- 30.03 in1016.9 mb 0.00 in0.0 mm 0.00 in0.0 mm 0.05 in1.3 mm
06:45 PM 70.0°F21.1°C 49.4°F9.7°C 48% Calm Calm -- 30.04 in1017.3 mb 0.00 in0.0 mm 0.00 in0.0 mm 0.05 in1.3 mm
06:50 PM 69.4°F20.8°C 49.4°F9.7°C 49% Calm Calm -- 30.04 in1017.3 mb 0.00 in0.0 mm 0.00 in0.0 mm 0.05 in1.3 mm
06:55 PM 68.8°F20.4°C 49.4°F9.7°C 50% Calm Calm -- 30.04 in1017.3 mb 0.00 in0.0 mm 0.00 in0.0 mm 0.05 in1.3 mm
07:00 PM 68.1°F20.1°C 49.3°F9.6°C 51% Calm Calm -- 30.04 in1017.3 mb 0.00 in0.0 mm 0.00 in0.0 mm 0.05 in1.3 mm
07:05 PM 67.4°F19.7°C 49.2°F9.6°C 52% Calm Calm -- 30.04 in1017.3 mb 0.00 in0.0 mm 0.00 in0.0 mm 0.05 in1.3 mm
07:10 PM 66.8°F19.3°C 49.1°F9.5°C 53% Calm Calm -- 30.04 in1017.3 mb 0.00 in0.0 mm 0.00 in0.0 mm 0.05 in1.3 mm
07:15 PM 66.4°F19.1°C 49.7°F9.8°C 55% Calm Calm -- 30.04 in1017.3 mb 0.00 in0.0 mm 0.00 in0.0 mm 0.05 in1.3 mm
07:20 PM 66.1°F18.9°C 49.5°F9.7°C 55% Calm Calm -- 30.04 in1017.3 mb 0.00 in0.0 mm 0.00 in0.0 mm 0.05 in1.3 mm
07:25 PM 65.6°F18.7°C 49.9°F9.9°C 57% Calm Calm -- 30.04 in1017.3 mb 0.00 in0.0 mm 0.00 in0.0 mm 0.05 in1.3 mm
07:30 PM 65.0°F18.3°C 49.4°F9.7°C 57% Calm Calm -- 30.04 in1017.3 mb 0.00 in0.0 mm 0.00 in0.0 mm 0.05 in1.3 mm
07:35 PM 64.5°F18.1°C 49.4°F9.7°C 58% Calm Calm -- 30.04 in1017.3 mb 0.00 in0.0 mm 0.00 in0.0 mm 0.05 in1.3 mm
07:40 PM 64.0°F17.8°C 49.4°F9.7°C 59% Calm Calm -- 30.04 in1017.3 mb 0.00 in0.0 mm 0.00 in0.0 mm 0.05 in1.3 mm
07:45 PM 63.5°F17.5°C 49.8°F9.9°C 61% Calm Calm -- 30.04 in1017.3 mb 0.00 in0.0 mm 0.00 in0.0 mm 0.05 in1.3 mm
07:50 PM 63.1°F17.3°C 49.9°F9.9°C 62% Calm Calm -- 30.04 in1017.3 mb 0.00 in0.0 mm 0.00 in0.0 mm 0.05 in1.3 mm
07:55 PM 62.7°F17.1°C 49.5°F9.7°C 62% Calm Calm -- 30.04 in1017.3 mb 0.00 in0.0 mm 0.00 in0.0 mm 0.05 in1.3 mm
08:00 PM 62.5°F16.9°C 49.7°F9.8°C 63% Calm Calm -- 30.04 in1017.3 mb 0.00 in0.0 mm 0.00 in0.0 mm 0.05 in1.3 mm
08:05 PM 62.2°F16.8°C 49.9°F9.9°C 64% Calm Calm -- 30.04 in1017.3 mb 0.00 in0.0 mm 0.00 in0.0 mm 0.05 in1.3 mm
08:10 PM 62.0°F16.7°C 50.1°F10.1°C 65% Calm Calm -- 30.05 in1017.6 mb 0.00 in0.0 mm 0.00 in0.0 mm 0.05 in1.3 mm
08:15 PM 62.5°F16.9°C 50.6°F10.3°C 65% Calm Calm -- 30.04 in1017.3 mb 0.00 in0.0 mm 0.00 in0.0 mm 0.05 in1.3 mm
08:20 PM 62.7°F17.1°C 50.3°F10.2°C 64% Calm Calm -- 30.05 in1017.6 mb 0.00 in0.0 mm 0.00 in0.0 mm 0.05 in1.3 mm
08:25 PM 62.5°F16.9°C 50.6°F10.3°C 65% Calm Calm -- 30.05 in1017.6 mb 0.00 in0.0 mm 0.00 in0.0 mm 0.05 in1.3 mm
08:30 PM 62.5°F16.9°C 50.2°F10.1°C 64% Calm Calm -- 30.05 in1017.6 mb 0.00 in0.0 mm 0.00 in0.0 mm 0.05 in1.3 mm
08:35 PM 62.6°F17.0°C 50.2°F10.1°C 64% Calm Calm -- 30.05 in1017.6 mb 0.00 in0.0 mm 0.00 in0.0 mm 0.05 in1.3 mm
08:40 PM 62.6°F17.0°C 50.2°F10.1°C 64% Calm Calm -- 30.05 in1017.6 mb 0.00 in0.0 mm 0.00 in0.0 mm 0.05 in1.3 mm
08:45 PM 62.4°F16.9°C 50.1°F10.1°C 64% Calm Calm -- 30.05 in1017.6 mb 0.00 in0.0 mm 0.00 in0.0 mm 0.05 in1.3 mm
08:50 PM 62.1°F16.7°C 50.2°F10.1°C 65% Calm Calm -- 30.06 in1017.9 mb 0.00 in0.0 mm 0.00 in0.0 mm 0.05 in1.3 mm
08:55 PM 61.8°F16.6°C 50.3°F10.2°C 66% Calm Calm -- 30.06 in1017.9 mb 0.00 in0.0 mm 0.00 in0.0 mm 0.05 in1.3 mm
09:00 PM 61.6°F16.4°C 50.1°F10.1°C 66% Calm Calm -- 30.06 in1017.9 mb 0.00 in0.0 mm 0.00 in0.0 mm 0.05 in1.3 mm
09:05 PM 61.4°F16.3°C 49.9°F9.9°C 66% Calm Calm -- 30.06 in1017.9 mb 0.00 in0.0 mm 0.00 in0.0 mm 0.05 in1.3 mm
09:10 PM 61.0°F16.1°C 50.0°F10.0°C 67% Calm Calm -- 30.07 in1018.3 mb 0.00 in0.0 mm 0.00 in0.0 mm 0.05 in1.3 mm
09:15 PM 60.5°F15.8°C 49.5°F9.7°C 67% Calm Calm -- 30.07 in1018.3 mb 0.00 in0.0 mm 0.00 in0.0 mm 0.05 in1.3 mm
09:20 PM 60.1°F15.6°C 50.3°F10.2°C 70% Calm Calm -- 30.07 in1018.3 mb 0.00 in0.0 mm 0.00 in0.0 mm 0.05 in1.3 mm
09:25 PM 60.5°F15.8°C 50.7°F10.4°C 70% Calm Calm -- 30.07 in1018.3 mb 0.00 in0.0 mm 0.00 in0.0 mm 0.05 in1.3 mm
09:30 PM 60.8°F16.0°C 50.6°F10.3°C 69% Calm Calm -- 30.07 in1018.3 mb 0.00 in0.0 mm 0.00 in0.0 mm 0.05 in1.3 mm
09:35 PM 60.8°F16.0°C 51.0°F10.6°C 70% Calm Calm -- 30.07 in1018.3 mb 0.00 in0.0 mm 0.00 in0.0 mm 0.05 in1.3 mm
09:40 PM 60.7°F15.9°C 51.2°F10.7°C 71% Calm Calm -- 30.07 in1018.3 mb 0.00 in0.0 mm 0.00 in0.0 mm 0.05 in1.3 mm
09:45 PM 60.8°F16.0°C 51.7°F10.9°C 72% Calm Calm -- 30.07 in1018.3 mb 0.00 in0.0 mm 0.00 in0.0 mm 0.05 in1.3 mm
09:50 PM 60.9°F16.1°C 51.8°F11.0°C 72% Calm Calm -- 30.07 in1018.3 mb 0.00 in0.0 mm 0.00 in0.0 mm 0.05 in1.3 mm
09:55 PM 60.9°F16.1°C 52.2°F11.2°C 73% Calm Calm -- 30.07 in1018.3 mb 0.00 in0.0 mm 0.00 in0.0 mm 0.05 in1.3 mm
10:00 PM 60.8°F16.0°C 52.1°F11.2°C 73% Calm Calm -- 30.07 in1018.3 mb 0.00 in0.0 mm 0.00 in0.0 mm 0.05 in1.3 mm
10:05 PM 60.6°F15.9°C 51.9°F11.1°C 73% Calm Calm -- 30.08 in1018.6 mb 0.00 in0.0 mm 0.00 in0.0 mm 0.05 in1.3 mm
10:10 PM 60.4°F15.8°C 52.1°F11.2°C 74% Calm Calm -- 30.08 in1018.6 mb 0.00 in0.0 mm 0.00 in0.0 mm 0.05 in1.3 mm
10:15 PM 60.3°F15.7°C 52.0°F11.1°C 74% Calm Calm -- 30.08 in1018.6 mb 0.00 in0.0 mm 0.00 in0.0 mm 0.05 in1.3 mm
10:20 PM 60.4°F15.8°C 52.1°F11.2°C 74% Calm Calm -- 30.08 in1018.6 mb 0.00 in0.0 mm 0.00 in0.0 mm 0.05 in1.3 mm
10:25 PM 60.5°F15.8°C 52.2°F11.2°C 74% 0.1 mph N0.2 kmh N 1.0 mph1.6 kmh 30.07 in1018.3 mb 0.00 in0.0 mm 0.00 in0.0 mm 0.05 in1.3 mm
10:30 PM 60.4°F15.8°C 52.4°F11.3°C 75% Calm Calm 1.0 mph1.6 kmh 30.07 in1018.3 mb 0.00 in0.0 mm 0.00 in0.0 mm 0.05 in1.3 mm
10:35 PM 60.2°F15.7°C 52.2°F11.2°C 75% Calm Calm 1.0 mph1.6 kmh 30.07 in1018.3 mb 0.00 in0.0 mm 0.00 in0.0 mm 0.05 in1.3 mm
10:40 PM 59.9°F15.5°C 52.0°F11.1°C 75% Calm Calm 1.0 mph1.6 kmh 30.07 in1018.3 mb 0.00 in0.0 mm 0.00 in0.0 mm 0.05 in1.3 mm
10:45 PM 59.7°F15.4°C 52.1°F11.2°C 76% 0.1 mph NNW0.2 kmh NNW 1.0 mph1.6 kmh 30.07 in1018.3 mb 0.00 in0.0 mm 0.00 in0.0 mm 0.05 in1.3 mm
10:50 PM 59.7°F15.4°C 52.1°F11.2°C 76% Calm Calm 1.0 mph1.6 kmh 30.07 in1018.3 mb 0.00 in0.0 mm 0.00 in0.0 mm 0.05 in1.3 mm
10:55 PM 59.5°F15.3°C 51.9°F11.1°C 76% Calm Calm 1.0 mph1.6 kmh 30.07 in1018.3 mb 0.00 in0.0 mm 0.00 in0.0 mm 0.05 in1.3 mm
11:00 PM 59.4°F15.2°C 52.2°F11.2°C 77% 0.1 mph NNW0.2 kmh NNW 1.0 mph1.6 kmh 30.07 in1018.3 mb 0.00 in0.0 mm 0.00 in0.0 mm 0.05 in1.3 mm
11:05 PM 59.5°F15.3°C 52.3°F11.3°C 77% 0.1 mph N0.2 kmh N 2.0 mph3.2 kmh 30.07 in1018.3 mb 0.00 in0.0 mm 0.00 in0.0 mm 0.05 in1.3 mm
11:10 PM 59.6°F15.3°C 52.0°F11.1°C 76% Calm Calm 2.0 mph3.2 kmh 30.07 in1018.3 mb 0.00 in0.0 mm 0.00 in0.0 mm 0.05 in1.3 mm
11:15 PM 59.5°F15.3°C 51.9°F11.1°C 76% Calm Calm 1.0 mph1.6 kmh 30.07 in1018.3 mb 0.00 in0.0 mm 0.00 in0.0 mm 0.05 in1.3 mm
11:20 PM 59.1°F15.1°C 51.9°F11.1°C 77% Calm Calm -- 30.07 in1018.3 mb 0.00 in0.0 mm 0.00 in0.0 mm 0.05 in1.3 mm
11:25 PM 58.7°F14.8°C 51.9°F11.1°C 78% Calm Calm 1.0 mph1.6 kmh 30.07 in1018.3 mb 0.00 in0.0 mm 0.00 in0.0 mm 0.05 in1.3 mm
11:30 PM 58.5°F14.7°C 51.7°F10.9°C 78% Calm Calm 1.0 mph1.6 kmh 30.07 in1018.3 mb 0.00 in0.0 mm 0.00 in0.0 mm 0.05 in1.3 mm
11:35 PM 58.3°F14.6°C 51.5°F10.8°C 78% Calm Calm 1.0 mph1.6 kmh 30.07 in1018.3 mb 0.00 in0.0 mm 0.00 in0.0 mm 0.05 in1.3 mm
11:40 PM 58.3°F14.6°C 51.8°F11.0°C 79% 0.1 mph NNE0.2 kmh NNE 1.0 mph1.6 kmh 30.07 in1018.3 mb 0.00 in0.0 mm 0.00 in0.0 mm 0.05 in1.3 mm
11:45 PM 58.4°F14.7°C 51.9°F11.1°C 79% 0.3 mph N0.5 kmh N 1.0 mph1.6 kmh 30.07 in1018.3 mb 0.00 in0.0 mm 0.00 in0.0 mm 0.05 in1.3 mm
11:50 PM 58.4°F14.7°C 51.6°F10.9°C 78% 0.1 mph N0.2 kmh N 2.0 mph3.2 kmh 30.07 in1018.3 mb 0.00 in0.0 mm 0.00 in0.0 mm 0.05 in1.3 mm
11:55 PM 58.5°F14.7°C 52.0°F11.1°C 79% 0.2 mph N0.3 kmh N 2.0 mph3.2 kmh 30.07 in1018.3 mb 0.00 in0.0 mm 0.00 in0.0 mm 0.05 in1.3 mm